createdAt,value
2022-10-05T00:03:20.166Z,1002.43
2022-10-05T00:08:19.066Z,1002.44
2022-10-05T00:13:19.127Z,1002.35
2022-10-05T00:18:18.861Z,1002.33
2022-10-05T00:23:18.877Z,1002.20
2022-10-05T00:28:18.914Z,1002.23
2022-10-05T00:33:18.830Z,1002.23
2022-10-05T00:38:18.641Z,1002.21
2022-10-05T00:43:18.732Z,1002.22
2022-10-05T00:48:18.584Z,1002.22
2022-10-05T00:53:18.497Z,1002.22
2022-10-05T00:58:18.485Z,1002.21
2022-10-05T01:03:18.360Z,1002.23
2022-10-05T01:08:18.397Z,1002.14
2022-10-05T01:13:18.278Z,1002.10
2022-10-05T01:18:18.225Z,1002.11
2022-10-05T01:23:18.332Z,1002.04
2022-10-05T01:28:18.107Z,1001.98
2022-10-05T01:33:18.047Z,1001.99
2022-10-05T01:38:17.933Z,1001.92
2022-10-05T01:43:17.914Z,1001.96
2022-10-05T01:48:17.841Z,1001.90
2022-10-05T01:53:17.798Z,1001.80
2022-10-05T01:58:17.720Z,1001.80
2022-10-05T02:03:17.681Z,1001.75
2022-10-05T02:08:17.579Z,1001.68
2022-10-05T02:13:17.557Z,1001.64
2022-10-05T02:18:17.573Z,1001.59
2022-10-05T02:23:17.512Z,1001.56
2022-10-05T02:28:17.520Z,1001.60
2022-10-05T02:33:17.297Z,1001.57
2022-10-05T02:38:17.268Z,1001.52
2022-10-05T02:43:17.246Z,1001.51
2022-10-05T02:48:17.180Z,1001.52
2022-10-05T02:53:17.112Z,1001.47
2022-10-05T02:58:17.223Z,1001.42
2022-10-05T03:03:17.027Z,1001.40
2022-10-05T03:08:17.091Z,1001.37
2022-10-05T03:13:16.925Z,1001.36
2022-10-05T03:18:16.830Z,1001.21
2022-10-05T03:23:16.810Z,1001.21
2022-10-05T03:28:22.703Z,1001.19
2022-10-05T03:33:39.384Z,1001.15
2022-10-05T03:38:16.682Z,1001.07
2022-10-05T03:43:47.547Z,1001.06
2022-10-05T03:48:19.511Z,1000.97
2022-10-05T03:53:18.621Z,1000.90
2022-10-05T03:58:18.127Z,1000.88
2022-10-05T04:03:19.806Z,1000.79
2022-10-05T04:08:17.100Z,1000.84
2022-10-05T04:13:16.305Z,1000.85
2022-10-05T04:18:18.343Z,1000.85
2022-10-05T04:23:16.619Z,1000.81
2022-10-05T04:28:17.175Z,1000.73
2022-10-05T04:33:16.260Z,1000.71
2022-10-05T04:38:30.290Z,1000.74
2022-10-05T04:43:15.890Z,1000.70
2022-10-05T04:48:15.942Z,1000.78
2022-10-05T04:53:15.772Z,1000.75
2022-10-05T04:58:19.126Z,1000.80
2022-10-05T05:03:15.663Z,1000.82
2022-10-05T05:08:15.746Z,1000.85
2022-10-05T05:13:15.609Z,1000.82
2022-10-05T05:18:15.495Z,1000.88
2022-10-05T05:23:15.455Z,1000.82
2022-10-05T05:28:15.463Z,1000.86
2022-10-05T05:33:15.563Z,1000.80
2022-10-05T05:38:15.406Z,1000.83
2022-10-05T05:43:15.481Z,1000.84
2022-10-05T05:48:15.298Z,1000.84
2022-10-05T05:53:15.182Z,1000.80
2022-10-05T05:58:15.152Z,1000.76
2022-10-05T06:03:15.155Z,1000.72
2022-10-05T06:08:15.092Z,1000.70
2022-10-05T06:13:14.924Z,1000.70
2022-10-05T06:18:14.934Z,1000.71
2022-10-05T06:23:15.305Z,1000.72
2022-10-05T06:28:14.865Z,1000.78
2022-10-05T06:33:14.745Z,1000.83
2022-10-05T06:38:14.927Z,1000.77
2022-10-05T06:43:15.768Z,1000.76
2022-10-05T06:48:14.511Z,1000.76
2022-10-05T06:53:14.670Z,1000.64
2022-10-05T06:58:14.621Z,1000.68
2022-10-05T07:03:14.473Z,1000.66
2022-10-05T07:08:14.569Z,1000.66
2022-10-05T07:13:18.815Z,1000.66
2022-10-05T07:18:14.178Z,1000.64
2022-10-05T07:23:14.243Z,1000.69
2022-10-05T07:28:14.252Z,1000.70
2022-10-05T07:33:14.125Z,1000.73
2022-10-05T07:38:13.933Z,1000.80
2022-10-05T07:43:14.025Z,1000.79
2022-10-05T07:48:13.850Z,1000.82
2022-10-05T07:53:13.892Z,1000.85
2022-10-05T07:58:13.737Z,1000.83
2022-10-05T08:03:14.988Z,1000.91
2022-10-05T08:08:15.540Z,1000.95
2022-10-05T08:13:13.831Z,1000.93
2022-10-05T08:18:13.554Z,1000.86
2022-10-05T08:23:13.805Z,1000.86
2022-10-05T08:28:13.570Z,1000.82
2022-10-05T08:33:13.419Z,1000.73
2022-10-05T08:38:13.393Z,1000.75
2022-10-05T08:43:13.280Z,1000.72
2022-10-05T08:48:13.143Z,1000.74
2022-10-05T08:53:13.240Z,1000.71
2022-10-05T08:58:14.220Z,1000.73
2022-10-05T09:03:13.025Z,1000.69
2022-10-05T09:08:13.016Z,1000.69
2022-10-05T09:13:13.151Z,1000.71
2022-10-05T09:18:12.839Z,1000.58
2022-10-05T09:23:12.863Z,1000.55
2022-10-05T09:28:12.754Z,1000.51
2022-10-05T09:33:12.740Z,1000.42
2022-10-05T09:38:12.652Z,1000.42
2022-10-05T09:43:12.637Z,1000.39
2022-10-05T09:48:12.552Z,1000.40
2022-10-05T09:53:12.435Z,1000.44
2022-10-05T09:58:12.483Z,1000.24
2022-10-05T10:03:12.374Z,1000.31
2022-10-05T10:08:12.306Z,1000.28
2022-10-05T10:13:12.316Z,1000.22
2022-10-05T10:18:19.087Z,1000.21
2022-10-05T10:23:12.184Z,1000.20
2022-10-05T10:28:12.067Z,1000.20
2022-10-05T10:33:12.027Z,1000.20
2022-10-05T10:38:14.193Z,1000.19
2022-10-05T10:43:12.004Z,1000.18
2022-10-05T10:48:11.906Z,1000.20
2022-10-05T10:53:11.837Z,1000.21
2022-10-05T10:58:16.102Z,1000.15
2022-10-05T11:03:12.961Z,1000.02
2022-10-05T11:08:11.708Z,1000.02
2022-10-05T11:13:11.656Z,999.87
2022-10-05T11:18:11.635Z,999.75
2022-10-05T11:23:11.480Z,999.68
2022-10-05T11:28:11.451Z,999.54
2022-10-05T11:33:11.361Z,999.49
2022-10-05T11:38:11.324Z,999.46
2022-10-05T11:43:11.270Z,999.22
2022-10-05T11:48:11.284Z,999.18
2022-10-05T11:53:11.176Z,998.92
2022-10-05T11:58:11.267Z,998.83
2022-10-05T12:03:11.196Z,998.67
2022-10-05T12:08:11.275Z,998.58
2022-10-05T12:13:10.915Z,998.52
2022-10-05T12:18:10.905Z,998.38
2022-10-05T12:23:10.979Z,998.26
2022-10-05T12:28:10.936Z,998.11
2022-10-05T12:33:10.758Z,998.14
2022-10-05T12:38:11.852Z,998.01
2022-10-05T12:43:10.965Z,997.95
2022-10-05T12:48:10.527Z,997.82
2022-10-05T12:53:10.480Z,997.64
2022-10-05T12:58:10.464Z,997.53
2022-10-05T13:03:12.095Z,997.54
2022-10-05T13:08:10.514Z,997.49
2022-10-05T13:13:10.296Z,997.38
2022-10-05T13:18:10.304Z,997.38
2022-10-05T13:23:11.328Z,997.30
2022-10-05T13:28:10.298Z,997.19
2022-10-05T13:33:10.112Z,997.22
2022-10-05T13:38:11.675Z,997.12
2022-10-05T13:43:09.982Z,997.17
2022-10-05T13:48:10.012Z,997.07
2022-10-05T13:53:09.949Z,997.17
2022-10-05T13:58:09.929Z,997.10
2022-10-05T14:03:09.807Z,997.04
2022-10-05T14:08:09.722Z,996.96
2022-10-05T14:13:09.680Z,997.06
2022-10-05T14:18:09.609Z,997.01
2022-10-05T14:23:09.545Z,997.19
2022-10-05T14:28:09.518Z,997.22
2022-10-05T14:33:09.414Z,997.10
2022-10-05T14:38:09.462Z,997.20
2022-10-05T14:43:12.800Z,997.27
2022-10-05T14:48:09.231Z,997.27
2022-10-05T14:53:09.370Z,997.29
2022-10-05T14:58:09.379Z,997.36
2022-10-05T15:03:09.666Z,997.37
2022-10-05T15:08:09.874Z,997.30
2022-10-05T15:13:11.438Z,997.23
2022-10-05T15:18:08.994Z,997.39
2022-10-05T15:23:19.607Z,997.32
2022-10-05T15:28:08.957Z,997.54
2022-10-05T15:33:08.691Z,997.55
2022-10-05T15:38:08.634Z,997.59
2022-10-05T15:43:08.620Z,997.56
2022-10-05T15:48:08.516Z,997.69
2022-10-05T15:53:08.559Z,997.75
2022-10-05T15:58:08.437Z,997.89
2022-10-05T16:03:08.423Z,997.93
2022-10-05T16:08:08.390Z,998.00
2022-10-05T16:13:08.292Z,998.07
2022-10-05T16:18:08.208Z,998.25
2022-10-05T16:23:08.199Z,998.26
2022-10-05T16:28:08.257Z,998.39
2022-10-05T16:33:10.704Z,998.44
2022-10-05T16:38:08.110Z,998.62
2022-10-05T16:43:08.031Z,998.69
2022-10-05T16:48:08.119Z,998.78
2022-10-05T16:53:08.368Z,998.84
2022-10-05T16:58:08.991Z,998.86
2022-10-05T17:03:08.188Z,998.93
2022-10-05T17:08:08.426Z,999.05
2022-10-05T17:13:08.901Z,999.11
2022-10-05T17:18:07.655Z,999.21
2022-10-05T17:23:07.628Z,999.41
2022-10-05T17:28:09.643Z,999.57
2022-10-05T17:33:08.563Z,999.62
2022-10-05T17:38:08.443Z,999.88
2022-10-05T17:43:08.275Z,1000.02
2022-10-05T17:48:07.277Z,1000.15
2022-10-05T17:53:07.645Z,1000.20
2022-10-05T17:58:07.421Z,1000.32
2022-10-05T18:03:08.235Z,1000.28
2022-10-05T18:08:07.345Z,1000.33
2022-10-05T18:13:08.245Z,1000.37
2022-10-05T18:18:07.114Z,1000.47
2022-10-05T18:23:06.893Z,1000.50
2022-10-05T18:28:06.849Z,1000.57
2022-10-05T18:33:06.918Z,1000.57
2022-10-05T18:38:07.021Z,1000.59
2022-10-05T18:43:07.929Z,1000.59
2022-10-05T18:48:12.015Z,1000.60
2022-10-05T18:53:06.497Z,1000.69
2022-10-05T18:58:06.654Z,1000.70
2022-10-05T19:03:07.581Z,1000.75
2022-10-05T19:08:06.486Z,1000.73
2022-10-05T19:13:10.963Z,1000.69
2022-10-05T19:18:07.320Z,1000.76
2022-10-05T19:23:06.219Z,1000.74
2022-10-05T19:28:06.271Z,1000.77
2022-10-05T19:33:08.289Z,1000.85
2022-10-05T19:38:06.275Z,1000.86
2022-10-05T19:43:06.147Z,1000.99
2022-10-05T19:48:06.106Z,1001.01
2022-10-05T19:53:05.944Z,1000.99
2022-10-05T19:58:13.513Z,1000.93
2022-10-05T20:03:08.946Z,1000.92
2022-10-05T20:08:05.891Z,1000.90
2022-10-05T20:13:29.823Z,1001.07
2022-10-05T20:18:07.792Z,1000.95
2022-10-05T20:23:09.051Z,1001.09
2022-10-05T20:28:07.100Z,1001.12
2022-10-05T20:33:05.932Z,1001.18
2022-10-05T20:38:05.446Z,1001.14
2022-10-05T20:43:05.866Z,1001.27
2022-10-05T20:48:05.656Z,1001.41
2022-10-05T20:53:08.448Z,1001.42
2022-10-05T20:58:06.398Z,1001.54
2022-10-05T21:03:37.060Z,1001.50
2022-10-05T21:08:05.798Z,1001.57
2022-10-05T21:13:05.083Z,1001.53
2022-10-05T21:18:05.035Z,1001.49
2022-10-05T21:23:04.887Z,1001.57
2022-10-05T21:30:49.026Z,1001.62
2022-10-05T21:35:49.019Z,1001.62
2022-10-05T21:40:48.962Z,1001.64
2022-10-05T21:45:48.882Z,1001.69
2022-10-05T21:50:48.789Z,1001.62
2022-10-05T21:55:48.763Z,1001.71
2022-10-05T22:00:48.737Z,1001.86
2022-10-05T22:05:48.807Z,1002.08
2022-10-05T22:10:48.707Z,1002.50
2022-10-05T22:15:48.629Z,1003.00
2022-10-05T22:20:48.539Z,1002.78
2022-10-05T22:25:48.437Z,1002.92
2022-10-05T22:30:48.446Z,1003.02
2022-10-05T22:35:48.293Z,1003.21
2022-10-05T22:40:48.295Z,1003.13
2022-10-05T22:45:48.259Z,1003.38
2022-10-05T22:50:48.259Z,1003.47
2022-10-05T22:55:48.252Z,1003.57
2022-10-05T23:00:57.970Z,1003.70
2022-10-05T23:05:49.049Z,1003.69
2022-10-05T23:10:47.909Z,1003.87
2022-10-05T23:15:47.888Z,1004.01
2022-10-05T23:20:47.790Z,1004.36
2022-10-05T23:25:50.117Z,1004.69
2022-10-05T23:30:47.991Z,1005.02
2022-10-05T23:35:47.813Z,1005.19
2022-10-05T23:40:47.841Z,1005.31
2022-10-05T23:45:50.298Z,1005.39
2022-10-05T23:50:47.456Z,1005.30
2022-10-05T23:55:47.390Z,1005.34
